Barksdale Air Force Base
KBAD : now visible

Airfield :











YOU CAN JOIN US ON...

 
LOGIN :

Register | Disclaimer

   EN    FR    IT 

 









Legend :    VFR   Marginal VFR   IFR   Intensive IFR   Very Intensive IFR
Visi :
Ceiling :
>= 8 km
>= 3000ft
5 to 8 km
1000 to 3000 ft
1500m to 5 km
500 to 1000 ft
800 to 1500m
200 to 500 ft
< 800m
< 200 ft
Symbols :   Thunderstorms  Fog  Heavy snow  Heavy precipitations  Wind > 20 kt







- Airport Elevation : 166 ft


KBAD - Barksdale Air Force Base

CURRENT METAR :
  • 210356Z AUTO 13003KT 10SM CLR 22/22 A3009 RMK AO2 SLP191 T02190215

EXPIRED METARs :
  • 210256Z AUTO 00000KT 10SM OVC130 23/21 A3008 RMK AO2 SLP188 60000 T02300209 53006

TAF AMD TAF KBAD
Valid from the 20 at 12:00 until the 21 at 16:00 UTC


201254Z 2012/2116 14006KT 9999 BKN100 QNH2994INS
BECMG 2018/2019 14006KT 9999 BKN100 QNH2994INS
BECMG 2023/2024 13009KT 9999 BKN100 QNH3001INS
BECMG 2114/2115 18010G15KT 9999 BKN050 QNH2998INS TX28/2021Z TN19/2113Z LAST NO AMDS AFT 2012 NEXT 2310
No reported NOTAMs for that airfield.



MET'MAP, your aeronautical weather chart ! - Copyright ORBIFLY December 2007 - Disclaimer

ORBIFLY MET'MAP TEAM :

Programming & Development : Alexandra Zaïnal
Concept & Development : Baudouin d'Aumeries
Co-Development & Prog : Marc-Olivier Méhu
Technical & hardware support : Manuel Goepfert

Contact : metmap@orbifly.com




SOURCES & CREDITS :

   NOAA       Earth
Advisory